OTP weather

Henri Coandă International Airport
Bucharest, Bucureşti, Romania

Public forecast

Using degrees Celsius for public forecast. Weather courtesy of forecast.io.

Current aviation weather report (METAR) for Henri Coandă International Airport

Retrieved 2019/11/12 09:30 UTC (28 minutes ago):

LROP 120930Z 06009KT 8000 BKN007 15/13 Q1019 NOSIG

Aviation forecast (TAF) for Henri Coandă International Airport

Retrieved 2019/11/12 06:37 UTC (3 hours ago):

TAF LROP 120500Z 1206/1306 05010KT CAVOK BECMG 1211/1213 11012KT